createdAt,value
2023-07-18T00:01:15.580Z,25.61
2023-07-18T00:03:46.775Z,25.60
2023-07-18T00:06:20.937Z,25.61
2023-07-18T00:08:49.529Z,25.63
2023-07-18T00:11:25.310Z,25.66
2023-07-18T00:14:18.327Z,25.66
2023-07-18T00:16:53.089Z,25.67
2023-07-18T00:19:25.211Z,25.67
2023-07-18T00:21:53.697Z,25.66
2023-07-18T00:24:22.487Z,25.62
2023-07-18T00:27:05.362Z,25.60
2023-07-18T00:29:34.151Z,25.58
2023-07-18T00:32:05.768Z,25.52
2023-07-18T00:34:34.625Z,25.48
2023-07-18T00:37:04.181Z,25.43
2023-07-18T00:39:33.127Z,25.38
2023-07-18T00:42:02.018Z,25.34
2023-07-18T00:44:33.777Z,25.29
2023-07-18T00:47:02.872Z,25.24
2023-07-18T00:49:32.079Z,25.21
2023-07-18T00:52:02.495Z,25.18
2023-07-18T00:54:37.525Z,25.16
2023-07-18T00:57:08.728Z,25.12
2023-07-18T00:59:41.968Z,25.08
2023-07-18T01:02:20.610Z,25.04
2023-07-18T01:04:49.473Z,24.97
2023-07-18T01:07:22.827Z,24.91
2023-07-18T01:09:54.741Z,24.89
2023-07-18T01:12:23.409Z,24.83
2023-07-18T01:14:53.335Z,24.79
2023-07-18T01:17:24.616Z,24.76
2023-07-18T01:19:53.668Z,24.75
2023-07-18T01:22:25.338Z,24.73
2023-07-18T01:24:54.416Z,24.74
2023-07-18T01:27:38.368Z,24.76
2023-07-18T01:30:20.597Z,24.76
2023-07-18T01:32:50.334Z,24.77
2023-07-18T01:35:30.781Z,24.76
2023-07-18T01:38:12.277Z,24.75
2023-07-18T01:40:45.718Z,24.71
2023-07-18T01:43:14.199Z,24.65
2023-07-18T01:45:43.017Z,24.60
2023-07-18T01:48:12.004Z,24.57
2023-07-18T01:50:42.905Z,24.54
2023-07-18T01:53:16.416Z,24.48
2023-07-18T01:56:20.487Z,24.40
2023-07-18T01:58:52.488Z,24.34
2023-07-18T02:01:24.436Z,24.29
2023-07-18T02:03:55.495Z,24.22
2023-07-18T02:06:42.101Z,24.15
2023-07-18T02:09:17.891Z,24.09
2023-07-18T02:11:55.955Z,24.04
2023-07-18T02:14:30.477Z,24.00
2023-07-18T02:17:06.958Z,23.95
2023-07-18T02:19:39.532Z,23.89
2023-07-18T02:22:30.957Z,23.78
2023-07-18T02:25:27.905Z,23.72
2023-07-18T02:27:59.902Z,23.68
2023-07-18T02:31:05.461Z,23.57
2023-07-18T02:33:36.772Z,23.52
2023-07-18T02:36:13.118Z,23.49
2023-07-18T02:38:41.821Z,23.42
2023-07-18T02:41:16.341Z,23.35
2023-07-18T02:44:08.819Z,23.30
2023-07-18T02:46:46.087Z,23.27
2023-07-18T02:49:15.250Z,23.23
2023-07-18T02:52:26.597Z,23.16
2023-07-18T02:55:05.569Z,23.13
2023-07-18T02:57:39.588Z,23.16
2023-07-18T03:00:27.431Z,23.20
2023-07-18T03:02:58.722Z,23.23
2023-07-18T03:05:51.952Z,23.23
2023-07-18T03:08:20.988Z,23.22
2023-07-18T03:11:06.215Z,23.22
2023-07-18T03:13:45.106Z,23.23
2023-07-18T03:16:19.076Z,23.26
2023-07-18T03:18:55.486Z,23.29
2023-07-18T03:21:32.663Z,23.36
2023-07-18T03:24:02.015Z,23.45
2023-07-18T03:26:41.925Z,23.55
2023-07-18T03:29:35.535Z,23.83
2023-07-18T03:32:11.189Z,24.66
2023-07-18T03:34:42.952Z,25.49
2023-07-18T03:37:11.994Z,26.14
2023-07-18T03:39:41.919Z,26.72
2023-07-18T03:42:19.501Z,26.94
2023-07-18T03:45:22.986Z,26.85
2023-07-18T03:48:25.216Z,26.69
2023-07-18T03:51:06.926Z,26.59
2023-07-18T03:54:04.108Z,26.51
2023-07-18T03:56:35.799Z,26.42
2023-07-18T03:59:07.928Z,26.36
2023-07-18T04:01:39.294Z,26.35
2023-07-18T04:04:08.097Z,26.39
2023-07-18T04:06:39.892Z,26.37
2023-07-18T04:09:08.611Z,26.62
2023-07-18T04:11:47.487Z,27.09
2023-07-18T04:14:16.132Z,27.16
2023-07-18T04:16:44.727Z,27.21
2023-07-18T04:19:16.262Z,27.65
2023-07-18T04:21:44.840Z,27.81
2023-07-18T04:24:13.319Z,27.75
2023-07-18T04:26:41.712Z,27.62
2023-07-18T04:29:10.279Z,27.58
2023-07-18T04:31:38.564Z,27.57
2023-07-18T04:34:06.880Z,27.95
2023-07-18T04:36:35.415Z,28.81
2023-07-18T04:39:03.999Z,29.68
2023-07-18T04:41:41.172Z,30.52
2023-07-18T04:44:13.931Z,31.18
2023-07-18T04:46:42.860Z,31.71
2023-07-18T04:49:14.331Z,32.21
2023-07-18T04:51:45.305Z,32.68
2023-07-18T04:54:16.095Z,33.17
2023-07-18T04:56:44.569Z,33.65
2023-07-18T04:59:12.978Z,34.25
2023-07-18T05:01:44.550Z,34.72
2023-07-18T05:04:13.402Z,35.29
2023-07-18T05:06:45.318Z,35.26
2023-07-18T05:09:13.688Z,35.43
2023-07-18T05:11:44.915Z,35.78
2023-07-18T05:14:13.238Z,36.43
2023-07-18T05:16:44.159Z,36.87
2023-07-18T05:19:12.659Z,37.28
2023-07-18T05:21:40.847Z,37.55
2023-07-18T05:24:09.275Z,37.80
2023-07-18T05:26:37.700Z,37.91
2023-07-18T05:29:06.071Z,37.42
2023-07-18T05:31:34.513Z,36.98
2023-07-18T05:34:02.908Z,37.71
2023-07-18T05:36:31.104Z,38.01
2023-07-18T05:38:59.506Z,38.33
2023-07-18T05:41:27.833Z,38.54
2023-07-18T05:43:56.131Z,38.58
2023-07-18T05:46:24.432Z,38.40
2023-07-18T05:48:52.889Z,38.91
2023-07-18T05:51:21.945Z,39.29
2023-07-18T05:53:50.586Z,39.44
2023-07-18T05:56:19.256Z,39.96
2023-07-18T05:58:47.530Z,40.06
2023-07-18T06:01:16.404Z,40.04
2023-07-18T06:03:44.780Z,40.32
2023-07-18T06:06:13.088Z,40.72
2023-07-18T06:08:44.406Z,40.59
2023-07-18T06:11:12.672Z,41.00
2023-07-18T06:13:42.651Z,41.05
2023-07-18T06:16:13.284Z,41.20
2023-07-18T06:18:42.970Z,40.53
2023-07-18T06:21:11.501Z,40.19
2023-07-18T06:23:40.089Z,40.34
2023-07-18T06:26:08.708Z,40.46
2023-07-18T06:28:37.182Z,40.30
2023-07-18T06:31:05.579Z,39.85
2023-07-18T06:33:47.230Z,39.26
2023-07-18T06:36:17.300Z,39.26
2023-07-18T06:38:48.834Z,39.25
2023-07-18T06:41:18.059Z,39.28
2023-07-18T06:43:49.785Z,39.10
2023-07-18T06:46:18.273Z,38.80
2023-07-18T06:48:46.550Z,38.50
2023-07-18T06:51:16.041Z,38.09
2023-07-18T06:53:44.630Z,37.93
2023-07-18T06:56:13.205Z,37.86
2023-07-18T06:58:42.926Z,37.67
2023-07-18T07:01:23.924Z,37.06
2023-07-18T07:03:52.980Z,36.64
2023-07-18T07:06:21.554Z,36.42
2023-07-18T07:08:49.771Z,36.20
2023-07-18T07:11:18.460Z,36.20
2023-07-18T07:13:47.324Z,36.52
2023-07-18T07:16:15.821Z,36.63
2023-07-18T07:18:44.269Z,36.77
2023-07-18T07:21:12.636Z,36.62
2023-07-18T07:23:40.974Z,36.36
2023-07-18T07:26:12.065Z,36.44
2023-07-18T07:28:41.408Z,36.52
2023-07-18T07:31:10.426Z,36.43
2023-07-18T07:33:38.743Z,36.25
2023-07-18T07:36:07.222Z,36.27
2023-07-18T07:38:35.834Z,36.40
2023-07-18T07:41:06.232Z,36.41
2023-07-18T07:43:34.832Z,36.31
2023-07-18T07:46:03.749Z,35.97
2023-07-18T07:48:32.218Z,36.18
2023-07-18T07:51:07.194Z,36.13
2023-07-18T07:53:35.628Z,35.92
2023-07-18T07:56:04.495Z,35.88
2023-07-18T07:58:32.788Z,35.96
2023-07-18T08:01:02.628Z,35.64
2023-07-18T08:03:30.973Z,35.60
2023-07-18T08:06:00.203Z,35.85
2023-07-18T08:08:28.580Z,35.69
2023-07-18T08:10:57.213Z,35.69
2023-07-18T08:13:26.347Z,35.77
2023-07-18T08:15:55.324Z,35.49
2023-07-18T08:18:26.442Z,35.77
2023-07-18T08:20:55.125Z,35.85
2023-07-18T08:23:23.909Z,35.90
2023-07-18T08:25:52.288Z,36.00
2023-07-18T08:28:20.988Z,35.94
2023-07-18T08:30:49.367Z,35.47
2023-07-18T08:33:20.715Z,35.38
2023-07-18T08:35:50.667Z,35.17
2023-07-18T08:38:19.609Z,34.86
2023-07-18T08:40:49.625Z,34.22
2023-07-18T08:43:19.600Z,34.15
2023-07-18T08:45:49.113Z,34.50
2023-07-18T08:48:17.887Z,34.54
2023-07-18T08:50:46.620Z,34.03
2023-07-18T08:53:20.657Z,33.92
2023-07-18T08:55:49.760Z,33.85
2023-07-18T08:58:21.509Z,33.79
2023-07-18T09:00:53.234Z,33.90
2023-07-18T09:03:21.744Z,33.95
2023-07-18T09:05:51.235Z,34.01
2023-07-18T09:08:23.294Z,34.22
2023-07-18T09:11:22.183Z,34.27
2023-07-18T09:13:51.521Z,34.27
2023-07-18T09:16:23.698Z,34.52
2023-07-18T09:18:54.586Z,34.88
2023-07-18T09:21:24.747Z,35.22
2023-07-18T09:23:54.241Z,35.39
2023-07-18T09:26:23.320Z,35.33
2023-07-18T09:28:52.985Z,35.65
2023-07-18T09:31:24.434Z,35.83
2023-07-18T09:33:56.079Z,35.82
2023-07-18T09:36:26.978Z,35.79
2023-07-18T09:39:02.820Z,35.50
2023-07-18T09:41:33.243Z,35.74
2023-07-18T09:44:27.489Z,35.55
2023-07-18T09:46:52.781Z,35.44
2023-07-18T09:49:24.850Z,35.40
2023-07-18T09:52:17.576Z,35.67
2023-07-18T09:54:46.430Z,35.56
2023-07-18T09:57:17.721Z,35.57
2023-07-18T10:00:02.228Z,35.63
2023-07-18T10:02:40.273Z,35.69
2023-07-18T10:05:15.501Z,35.75
2023-07-18T10:07:44.978Z,35.89
2023-07-18T10:10:14.337Z,35.82
2023-07-18T10:12:55.529Z,35.82
2023-07-18T10:15:26.604Z,35.69
2023-07-18T10:17:55.476Z,35.84
2023-07-18T10:20:38.193Z,36.12
2023-07-18T10:23:07.787Z,35.81
2023-07-18T10:25:36.217Z,35.93
2023-07-18T10:28:08.438Z,35.77
2023-07-18T10:30:43.866Z,35.38
2023-07-18T10:33:18.904Z,35.32
2023-07-18T10:35:49.670Z,35.35
2023-07-18T10:38:27.149Z,35.40
2023-07-18T10:40:55.837Z,35.49
2023-07-18T10:43:24.097Z,35.58
2023-07-18T10:45:53.808Z,35.64
2023-07-18T10:48:22.273Z,35.61
2023-07-18T10:50:51.210Z,35.71
2023-07-18T10:53:29.553Z,35.49
2023-07-18T10:55:59.226Z,34.96
2023-07-18T10:58:27.810Z,34.99
2023-07-18T11:01:05.412Z,34.70
2023-07-18T11:03:40.563Z,34.72
2023-07-18T11:06:09.941Z,34.56
2023-07-18T11:08:41.493Z,34.19
2023-07-18T11:11:10.487Z,33.97
2023-07-18T11:13:40.726Z,34.06
2023-07-18T11:16:18.317Z,33.88
2023-07-18T11:18:49.780Z,34.05
2023-07-18T11:21:20.570Z,34.04
2023-07-18T11:23:49.468Z,33.87
2023-07-18T11:26:19.814Z,33.77
2023-07-18T11:28:53.125Z,33.68
2023-07-18T11:34:06.600Z,33.96
2023-07-18T11:36:48.489Z,33.79
2023-07-18T11:39:23.578Z,33.60
2023-07-18T11:41:54.136Z,33.48
2023-07-18T11:44:26.965Z,33.52
2023-07-18T11:46:56.479Z,33.58
2023-07-18T11:49:37.779Z,33.73
2023-07-18T11:52:09.504Z,33.67
2023-07-18T11:54:38.325Z,33.60
2023-07-18T11:57:11.317Z,33.57
2023-07-18T11:59:43.191Z,33.59
2023-07-18T12:02:11.864Z,33.48
2023-07-18T12:04:43.103Z,33.54
2023-07-18T12:07:11.487Z,33.56
2023-07-18T12:09:40.167Z,33.57
2023-07-18T12:12:08.842Z,33.56
2023-07-18T12:14:37.309Z,33.36
2023-07-18T12:17:06.374Z,33.29
2023-07-18T12:19:55.049Z,33.07
2023-07-18T12:22:23.424Z,33.01
2023-07-18T12:24:52.147Z,33.00
2023-07-18T12:27:20.543Z,33.02
2023-07-18T12:29:49.302Z,32.99
2023-07-18T12:32:17.718Z,32.60
2023-07-18T12:34:49.459Z,32.30
2023-07-18T12:37:18.210Z,32.26
2023-07-18T12:39:46.850Z,32.13
2023-07-18T12:42:15.476Z,32.09
2023-07-18T12:44:48.565Z,32.17
2023-07-18T12:47:18.325Z,32.16
2023-07-18T12:52:18.594Z,31.85
2023-07-18T12:54:49.237Z,31.77
2023-07-18T12:57:17.579Z,31.81
2023-07-18T12:59:46.047Z,31.81
2023-07-18T13:02:17.299Z,31.92
2023-07-18T13:04:49.123Z,31.93
2023-07-18T13:07:17.917Z,31.83
2023-07-18T13:09:46.710Z,31.62
2023-07-18T13:12:15.173Z,31.56
2023-07-18T13:14:46.016Z,31.53
2023-07-18T13:17:18.118Z,31.57
2023-07-18T13:19:49.017Z,31.60
2023-07-18T13:22:21.525Z,31.44
2023-07-18T13:24:50.019Z,31.37
2023-07-18T13:27:18.760Z,31.38
2023-07-18T13:29:47.545Z,31.36
2023-07-18T13:32:18.596Z,31.42
2023-07-18T13:34:47.170Z,31.50
2023-07-18T13:37:15.688Z,31.50
2023-07-18T13:39:44.129Z,31.47
2023-07-18T13:42:22.401Z,31.44
2023-07-18T13:44:55.017Z,31.46
2023-07-18T13:47:23.431Z,31.36
2023-07-18T13:49:53.213Z,31.28
2023-07-18T13:52:23.349Z,31.23
2023-07-18T13:55:01.078Z,31.20
2023-07-18T13:57:30.807Z,31.18
2023-07-18T14:00:00.893Z,31.11
2023-07-18T14:02:29.649Z,31.13
2023-07-18T14:04:58.747Z,30.99
2023-07-18T14:07:27.422Z,30.98
2023-07-18T14:10:04.612Z,31.01
2023-07-18T14:12:33.394Z,31.10
2023-07-18T14:15:06.155Z,31.17
2023-07-18T14:17:37.549Z,31.20
2023-07-18T14:20:34.076Z,31.23
2023-07-18T14:23:04.139Z,31.25
2023-07-18T14:25:33.094Z,31.21
2023-07-18T14:28:10.834Z,31.19
2023-07-18T14:30:46.731Z,31.16
2023-07-18T14:33:19.177Z,31.17
2023-07-18T14:35:50.757Z,31.15
2023-07-18T14:38:19.495Z,31.15
2023-07-18T14:40:49.400Z,31.11
2023-07-18T14:43:29.228Z,31.02
2023-07-18T14:45:58.515Z,30.98
2023-07-18T14:48:27.249Z,30.89
2023-07-18T14:50:56.320Z,30.90
2023-07-18T14:53:25.374Z,30.83
2023-07-18T14:55:54.178Z,30.78
2023-07-18T14:58:34.017Z,30.81
2023-07-18T15:01:29.471Z,30.77
2023-07-18T15:04:18.424Z,30.70
2023-07-18T15:06:47.034Z,30.66
2023-07-18T15:09:18.959Z,30.67
2023-07-18T15:11:51.012Z,30.60
2023-07-18T15:14:19.615Z,30.52
2023-07-18T15:16:58.393Z,30.57
2023-07-18T15:19:26.977Z,30.58
2023-07-18T15:21:57.884Z,30.56
2023-07-18T15:24:26.651Z,30.56
2023-07-18T15:26:55.500Z,30.51
2023-07-18T15:29:24.178Z,30.40
2023-07-18T15:31:52.610Z,30.39
2023-07-18T15:34:21.141Z,30.40
2023-07-18T15:36:49.739Z,30.36
2023-07-18T15:39:18.407Z,30.26
2023-07-18T15:41:49.141Z,30.25
2023-07-18T15:44:17.834Z,30.20
2023-07-18T15:46:46.826Z,30.13
2023-07-18T15:49:15.354Z,30.11
2023-07-18T15:51:43.994Z,30.08
2023-07-18T15:54:12.529Z,30.06
2023-07-18T15:56:44.015Z,30.02
2023-07-18T15:59:15.307Z,29.96
2023-07-18T16:01:51.846Z,29.90
2023-07-18T16:04:23.161Z,29.82
2023-07-18T16:07:00.803Z,29.76
2023-07-18T16:09:32.099Z,29.70
2023-07-18T16:12:02.954Z,29.65
2023-07-18T16:14:32.452Z,29.63
2023-07-18T16:17:02.169Z,29.66
2023-07-18T16:19:30.696Z,29.68
2023-07-18T16:22:01.468Z,29.71
2023-07-18T16:24:29.975Z,29.72
2023-07-18T16:27:03.660Z,29.68
2023-07-18T16:29:32.255Z,29.62
2023-07-18T16:32:01.108Z,29.55
2023-07-18T16:34:29.938Z,29.52
2023-07-18T16:37:00.963Z,29.48
2023-07-18T16:39:33.468Z,29.45
2023-07-18T16:42:21.831Z,29.41
2023-07-18T16:44:52.730Z,29.35
2023-07-18T16:47:32.780Z,29.30
2023-07-18T16:50:20.547Z,29.21
2023-07-18T16:52:51.928Z,29.13
2023-07-18T16:55:20.858Z,29.02
2023-07-18T16:57:49.438Z,28.95
2023-07-18T17:00:38.298Z,28.87
2023-07-18T17:03:07.165Z,28.85
2023-07-18T17:05:49.497Z,28.81
2023-07-18T17:08:20.373Z,28.73
2023-07-18T17:10:52.159Z,28.69
2023-07-18T17:13:22.817Z,28.66
2023-07-18T17:15:52.425Z,28.59
2023-07-18T17:18:24.179Z,28.54
2023-07-18T17:20:53.376Z,28.48
2023-07-18T17:23:22.777Z,28.41
2023-07-18T17:25:55.547Z,28.35
2023-07-18T17:28:30.489Z,28.27
2023-07-18T17:31:08.016Z,28.21
2023-07-18T17:33:39.636Z,28.14
2023-07-18T17:36:28.679Z,28.07
2023-07-18T17:39:00.472Z,28.01
2023-07-18T17:41:32.731Z,27.95
2023-07-18T17:44:02.709Z,27.88
2023-07-18T17:46:31.313Z,27.79
2023-07-18T17:49:00.047Z,27.72
2023-07-18T17:51:30.124Z,27.66
2023-07-18T17:54:33.096Z,27.59
2023-07-18T17:57:26.212Z,27.50
2023-07-18T18:00:24.220Z,27.44
2023-07-18T18:02:53.126Z,27.37
2023-07-18T18:05:46.848Z,27.31
2023-07-18T18:08:26.389Z,27.24
2023-07-18T18:11:22.568Z,27.12
2023-07-18T18:14:04.392Z,27.04
2023-07-18T18:17:02.180Z,26.93
2023-07-18T18:19:33.505Z,26.83
2023-07-18T18:22:02.682Z,26.76
2023-07-18T18:24:46.339Z,26.70
2023-07-18T18:27:22.689Z,26.61
2023-07-18T18:30:32.205Z,26.53
2023-07-18T18:33:30.177Z,26.44
2023-07-18T18:36:16.503Z,26.33
2023-07-18T18:38:54.814Z,26.23
2023-07-18T18:41:34.845Z,26.10
2023-07-18T18:44:31.365Z,26.01
2023-07-18T18:47:02.369Z,25.89
2023-07-18T18:49:33.801Z,25.75
2023-07-18T18:52:02.481Z,25.64
2023-07-18T18:54:58.713Z,25.53
2023-07-18T18:57:37.368Z,25.37
2023-07-18T19:00:14.008Z,25.21
2023-07-18T19:02:45.147Z,25.10
2023-07-18T19:05:13.758Z,25.01
2023-07-18T19:07:42.305Z,24.92
2023-07-18T19:10:21.135Z,24.82
2023-07-18T19:13:27.501Z,24.70
2023-07-18T19:15:58.235Z,24.54
2023-07-18T19:18:26.983Z,24.42
2023-07-18T19:21:04.712Z,24.29
2023-07-18T19:23:33.307Z,24.19
2023-07-18T19:26:04.296Z,24.13
2023-07-18T19:28:33.644Z,24.05
2023-07-18T19:31:04.986Z,23.97
2023-07-18T19:33:36.694Z,23.88
2023-07-18T19:36:14.481Z,23.78
2023-07-18T19:38:57.944Z,23.66
2023-07-18T19:41:27.257Z,23.55
2023-07-18T19:43:59.037Z,23.44
2023-07-18T19:46:36.572Z,23.37
2023-07-18T19:49:17.616Z,23.31
2023-07-18T19:51:48.850Z,23.27
2023-07-18T19:54:17.939Z,23.22
2023-07-18T19:56:46.735Z,23.19
2023-07-18T19:59:36.115Z,23.17
2023-07-18T20:02:04.972Z,23.13
2023-07-18T20:04:35.978Z,23.07
2023-07-18T20:07:24.912Z,22.99
2023-07-18T20:09:55.592Z,22.94
2023-07-18T20:12:35.681Z,22.89
2023-07-18T20:15:07.845Z,22.84
2023-07-18T20:17:51.440Z,22.81
2023-07-18T20:20:36.874Z,22.77
2023-07-18T20:23:09.170Z,22.74
2023-07-18T20:25:40.907Z,22.70
2023-07-18T20:28:10.201Z,22.65
2023-07-18T20:30:39.071Z,22.59
2023-07-18T20:33:13.392Z,22.52
2023-07-18T20:35:41.946Z,22.46
2023-07-18T20:38:10.666Z,22.43
2023-07-18T20:40:39.568Z,22.41
2023-07-18T20:43:17.308Z,22.41
2023-07-18T20:46:14.926Z,22.40
2023-07-18T20:48:48.683Z,22.40
2023-07-18T20:51:29.404Z,22.38
2023-07-18T20:54:00.323Z,22.34
2023-07-18T20:56:35.073Z,22.37
2023-07-18T20:59:06.554Z,22.39
2023-07-18T21:01:37.639Z,22.40
2023-07-18T21:04:06.219Z,22.35
2023-07-18T21:06:44.257Z,22.32
2023-07-18T21:09:42.947Z,22.32
2023-07-18T21:12:14.777Z,22.27
2023-07-18T21:14:46.948Z,22.26
2023-07-18T21:17:15.516Z,22.23
2023-07-18T21:19:47.076Z,22.22
2023-07-18T21:22:27.390Z,22.21
2023-07-18T21:25:07.276Z,22.19
2023-07-18T21:27:55.953Z,22.17
2023-07-18T21:30:24.524Z,22.11
2023-07-18T21:32:53.646Z,22.03
2023-07-18T21:35:25.333Z,21.99
2023-07-18T21:38:17.470Z,21.93
2023-07-18T21:40:49.056Z,21.82
2023-07-18T21:43:18.416Z,21.78
2023-07-18T21:45:47.303Z,21.76
2023-07-18T21:48:15.925Z,21.74
2023-07-18T21:50:44.469Z,21.72
2023-07-18T21:53:14.043Z,21.71
2023-07-18T21:55:47.946Z,21.72
2023-07-18T21:58:26.535Z,21.70
2023-07-18T22:01:18.812Z,21.66
2023-07-18T22:03:47.877Z,21.66
2023-07-18T22:06:16.570Z,21.67
2023-07-18T22:08:45.254Z,21.68
2023-07-18T22:11:14.669Z,21.72
2023-07-18T22:13:43.570Z,21.73
2023-07-18T22:16:17.648Z,21.73
2023-07-18T22:18:57.941Z,21.74
2023-07-18T22:21:45.547Z,21.77
2023-07-18T22:24:16.478Z,21.79
2023-07-18T22:26:45.580Z,21.84
2023-07-18T22:29:16.816Z,21.90
2023-07-18T22:31:50.932Z,21.95
2023-07-18T22:34:19.717Z,21.97
2023-07-18T22:36:48.553Z,21.96
2023-07-18T22:39:37.330Z,21.93
2023-07-18T22:42:17.584Z,21.90
2023-07-18T22:44:49.999Z,21.88
2023-07-18T22:47:21.377Z,21.87
2023-07-18T22:49:55.571Z,21.88
2023-07-18T22:52:44.310Z,21.86
2023-07-18T22:55:13.199Z,21.82
2023-07-18T22:57:49.773Z,21.77
2023-07-18T23:00:18.867Z,21.72
2023-07-18T23:02:53.202Z,21.69
2023-07-18T23:05:24.426Z,21.70
2023-07-18T23:08:00.050Z,21.68
2023-07-18T23:10:28.884Z,21.65
2023-07-18T23:13:00.902Z,21.62
2023-07-18T23:15:30.359Z,21.59
2023-07-18T23:17:59.161Z,21.58
2023-07-18T23:20:37.944Z,21.56
2023-07-18T23:23:06.682Z,21.54
2023-07-18T23:25:35.518Z,21.53
2023-07-18T23:28:05.985Z,21.54
2023-07-18T23:30:37.430Z,21.53
2023-07-18T23:33:08.976Z,21.53
2023-07-18T23:35:38.141Z,21.54
2023-07-18T23:38:15.505Z,21.51
2023-07-18T23:40:45.662Z,21.51
2023-07-18T23:43:14.235Z,21.57
2023-07-18T23:45:42.818Z,21.60
2023-07-18T23:48:14.476Z,21.60
2023-07-18T23:50:43.054Z,21.58
2023-07-18T23:53:11.636Z,21.56
2023-07-18T23:55:45.594Z,21.57
2023-07-18T23:58:23.709Z,21.61
